Terminal Aerodrome Forecast
Issued by NWS Blacksburg, VA

Current Version | Previous Version | Graphics & Text | Print | Product List | Glossary On
Versions: 1 2 3 4 5 6 7 8 9 10 11 12 13 14 15
000
FTUS41 KRNK 230520
TAFBLF
TAF
KBLF 230520Z 2306/2406 00000KT P6SM SKC
      TEMPO 2308/2311 5SM BR SCT003
     FM231400 16005KT P6SM SCT040=

USA.gov is the U.S. government's official web portal to all federal, state and local government web resources and services.